Terminal Aerodrome Forecast
Issued by NWS Memphis, TN

Home | Current Version | Previous Version | Text Only | Print | Product List | Glossary On
Versions: 1 2 3 4 5 6 7 8 9 10 11 12 13 14 15 16 17 18 19 20 21 22 23 24 25 26
000
FTUS44 KMEG 181623 AAB
TAFMEM
TAF AMD
KMEM 181623Z 1816/1912 35004KT P6SM FEW035
     FM181800 30006KT P6SM FEW050
     FM190000 VRB02KT P6SM FEW250
     FM190900 20004KT P6SM VCSH BKN045=

USA.gov is the U.S. government's official web portal to all federal, state and local government web resources and services.